Terminal Aerodrome Forecast
Issued by NWS

Home | Current Version | Previous Version | Text Only | Print | Product List | Glossary On
Versions: 1 2 3 4 5 6 7 8 9 10 11 12 13 14 15 16 17 18 19 20 21 22 23 24
911
FTUS45 KGGW 241120
TAFGDV
TAF
KGDV 241120Z 2412/2512 30008KT P6SM SCT120
     FM241600 33010KT P6SM BKN110
     FM241900 32012KT P6SM BKN070
     FM250200 33006KT P6SM SCT050=

USA.gov is the U.S. government's official web portal to all federal, state and local government web resources and services.